createdAt,value
2023-03-26T00:00:02.473Z,30.10
2023-03-26T00:02:31.811Z,30.63
2023-03-26T00:05:01.130Z,29.95
2023-03-26T00:07:30.483Z,29.85
2023-03-26T00:10:00.058Z,30.52
2023-03-26T00:12:29.367Z,31.95
2023-03-26T00:14:58.871Z,31.85
2023-03-26T00:17:28.180Z,31.23
2023-03-26T00:19:58.098Z,30.75
2023-03-26T00:22:30.300Z,30.88
2023-03-26T00:25:00.259Z,34.78
2023-03-26T00:27:30.241Z,34.40
2023-03-26T00:30:01.010Z,36.75
2023-03-26T00:32:31.674Z,36.05
2023-03-26T00:35:03.523Z,38.67
2023-03-26T00:37:34.799Z,35.47
2023-03-26T00:40:07.810Z,34.05
2023-03-26T00:42:37.405Z,33.35
2023-03-26T00:45:08.831Z,32.33
2023-03-26T00:47:41.069Z,32.20
2023-03-26T00:50:16.314Z,33.60
2023-03-26T00:52:47.351Z,33.60
2023-03-26T00:55:17.342Z,32.53
2023-03-26T00:57:46.970Z,32.97
2023-03-26T01:00:21.515Z,31.90
2023-03-26T01:02:50.762Z,32.92
2023-03-26T01:05:37.787Z,31.67
2023-03-26T01:08:32.695Z,31.58
2023-03-26T01:11:22.391Z,31.92
2023-03-26T01:14:08.386Z,31.98
2023-03-26T01:16:58.864Z,31.67
2023-03-26T01:20:08.569Z,30.30
2023-03-26T01:22:39.961Z,29.92
2023-03-26T01:25:13.244Z,30.33
2023-03-26T01:27:50.047Z,31.05
2023-03-26T01:30:59.625Z,31.00
2023-03-26T01:34:19.409Z,30.30
2023-03-26T01:37:26.644Z,28.40
2023-03-26T01:40:11.731Z,28.50
2023-03-26T01:43:02.328Z,27.25
2023-03-26T01:45:39.793Z,26.58
2023-03-26T01:48:10.147Z,31.07
2023-03-26T01:50:39.435Z,31.08
2023-03-26T01:53:11.275Z,27.83
2023-03-26T01:55:54.803Z,27.20
2023-03-26T01:59:05.236Z,27.25
2023-03-26T02:02:06.023Z,25.52
2023-03-26T02:05:01.311Z,24.23
2023-03-26T02:08:22.004Z,23.15
2023-03-26T02:10:58.584Z,21.90
2023-03-26T02:13:29.222Z,22.23
2023-03-26T02:16:04.843Z,22.50
2023-03-26T02:18:40.278Z,17.98
2023-03-26T02:21:21.106Z,18.30
2023-03-26T02:24:04.217Z,17.83
2023-03-26T02:26:36.741Z,17.77
2023-03-26T02:29:06.517Z,17.98
2023-03-26T02:31:36.749Z,18.40
2023-03-26T02:34:06.182Z,18.15
2023-03-26T02:36:36.798Z,17.35
2023-03-26T02:39:06.632Z,17.25
2023-03-26T02:41:35.924Z,16.58
2023-03-26T02:44:06.815Z,16.65
2023-03-26T02:46:36.540Z,16.02
2023-03-26T02:49:05.843Z,15.85
2023-03-26T02:51:38.472Z,16.77
2023-03-26T02:54:10.802Z,16.17
2023-03-26T02:56:40.224Z,16.45
2023-03-26T02:59:09.489Z,16.48
2023-03-26T03:01:43.798Z,16.20
2023-03-26T03:04:13.743Z,16.55
2023-03-26T03:06:43.159Z,15.93
2023-03-26T03:09:14.051Z,16.45
2023-03-26T03:11:43.501Z,15.00
2023-03-26T03:14:12.762Z,16.40
2023-03-26T03:16:42.112Z,16.42
2023-03-26T03:19:11.795Z,15.80
2023-03-26T03:21:42.910Z,16.55
2023-03-26T03:24:14.762Z,16.15
2023-03-26T03:26:46.629Z,15.18
2023-03-26T03:29:16.073Z,14.60
2023-03-26T03:31:45.336Z,15.25
2023-03-26T03:34:14.629Z,14.90
2023-03-26T03:36:43.862Z,15.32
2023-03-26T03:39:13.140Z,14.63
2023-03-26T03:41:42.499Z,14.82
2023-03-26T03:44:11.835Z,15.32
2023-03-26T03:46:41.331Z,15.90
2023-03-26T03:49:10.613Z,15.35
2023-03-26T03:51:39.852Z,15.20
2023-03-26T03:54:09.552Z,16.50
2023-03-26T03:56:39.995Z,15.07
2023-03-26T03:59:09.941Z,15.70
2023-03-26T04:01:39.331Z,15.77
2023-03-26T04:04:08.684Z,17.15
2023-03-26T04:06:38.016Z,16.20
2023-03-26T04:09:07.346Z,16.98
2023-03-26T04:11:36.620Z,16.65
2023-03-26T04:14:06.140Z,16.90
2023-03-26T04:16:35.433Z,15.25
2023-03-26T04:19:05.086Z,15.57
2023-03-26T04:21:38.646Z,16.83
2023-03-26T04:24:08.366Z,17.38
2023-03-26T04:26:37.923Z,16.88
2023-03-26T04:29:13.784Z,17.20
2023-03-26T04:31:44.029Z,16.92
2023-03-26T04:34:27.285Z,16.10
2023-03-26T04:36:56.521Z,16.05
2023-03-26T04:39:31.595Z,16.80
2023-03-26T04:42:01.453Z,17.95
2023-03-26T04:44:32.804Z,16.48
2023-03-26T04:47:02.095Z,18.08
2023-03-26T04:49:31.300Z,18.00
2023-03-26T04:52:00.958Z,17.73
2023-03-26T04:54:30.340Z,17.60
2023-03-26T04:57:03.280Z,18.70
2023-03-26T04:59:38.520Z,19.92
2023-03-26T05:02:09.360Z,17.65
2023-03-26T05:04:41.384Z,18.23
2023-03-26T05:07:12.277Z,19.13
2023-03-26T05:09:41.481Z,18.73
2023-03-26T05:12:10.626Z,18.05
2023-03-26T05:14:39.801Z,18.92
2023-03-26T05:17:11.876Z,16.23
2023-03-26T05:19:42.239Z,17.98
2023-03-26T05:22:11.429Z,18.15
2023-03-26T05:24:40.689Z,16.58
2023-03-26T05:27:10.211Z,16.98
2023-03-26T05:29:39.689Z,17.15
2023-03-26T05:32:11.345Z,16.83
2023-03-26T05:34:44.030Z,16.55
2023-03-26T05:37:13.224Z,16.05
2023-03-26T05:39:42.410Z,15.52
2023-03-26T05:42:11.612Z,17.40
2023-03-26T05:44:40.777Z,15.15
2023-03-26T05:47:09.927Z,14.02
2023-03-26T05:49:39.111Z,13.30
2023-03-26T05:52:08.576Z,14.48
2023-03-26T05:54:37.717Z,13.95
2023-03-26T05:57:07.138Z,13.30
2023-03-26T05:59:37.607Z,12.07
2023-03-26T06:02:07.369Z,13.32
2023-03-26T06:04:36.608Z,13.52
2023-03-26T06:07:05.882Z,13.93
2023-03-26T06:09:35.033Z,13.40
2023-03-26T06:12:04.359Z,14.00
2023-03-26T06:14:34.075Z,13.70
2023-03-26T06:17:03.854Z,12.77
2023-03-26T06:19:33.135Z,14.05
2023-03-26T06:22:02.329Z,13.63
2023-03-26T06:24:31.737Z,14.90
2023-03-26T06:27:00.936Z,13.65
2023-03-26T06:29:31.503Z,13.68
2023-03-26T06:32:12.381Z,13.85
2023-03-26T06:34:48.199Z,13.82
2023-03-26T06:37:18.531Z,13.98
2023-03-26T06:39:47.709Z,15.77
2023-03-26T06:42:17.125Z,15.23
2023-03-26T06:44:46.303Z,15.68
2023-03-26T06:47:15.638Z,15.27
2023-03-26T06:49:45.407Z,14.80
2023-03-26T06:52:14.649Z,14.65
2023-03-26T06:54:43.869Z,14.48
2023-03-26T06:57:13.078Z,14.35
2023-03-26T06:59:42.428Z,13.63
2023-03-26T07:02:12.867Z,13.88
2023-03-26T07:04:42.414Z,14.27
2023-03-26T07:07:11.620Z,13.60
2023-03-26T07:09:40.881Z,13.30
2023-03-26T07:12:10.796Z,13.73
2023-03-26T07:14:39.994Z,13.02
2023-03-26T07:17:09.164Z,12.75
2023-03-26T07:19:38.361Z,12.02
2023-03-26T07:22:07.989Z,12.00
2023-03-26T07:24:37.869Z,11.95
2023-03-26T07:27:47.877Z,11.98
2023-03-26T07:30:40.657Z,13.70
2023-03-26T07:33:51.090Z,11.77
2023-03-26T07:36:50.670Z,12.70
2023-03-26T07:39:36.441Z,12.52
2023-03-26T07:42:30.501Z,13.70
2023-03-26T07:45:42.129Z,12.45
2023-03-26T07:48:22.592Z,12.98
2023-03-26T07:50:52.943Z,13.60
2023-03-26T07:53:23.973Z,13.98
2023-03-26T07:56:09.783Z,13.68
2023-03-26T07:59:05.848Z,14.40
2023-03-26T08:02:10.784Z,14.98
2023-03-26T08:05:39.988Z,14.38
2023-03-26T08:08:35.908Z,14.45
2023-03-26T08:11:44.001Z,14.05
2023-03-26T08:14:41.908Z,15.20
2023-03-26T08:17:28.320Z,13.95
2023-03-26T08:20:51.341Z,14.45
2023-03-26T08:23:51.649Z,15.10
2023-03-26T08:26:52.826Z,15.13
2023-03-26T08:29:52.765Z,15.60
2023-03-26T08:32:22.839Z,15.57
2023-03-26T08:34:53.702Z,15.27
2023-03-26T08:37:22.908Z,14.73
2023-03-26T08:39:52.157Z,16.58
2023-03-26T08:42:50.886Z,14.98
2023-03-26T08:46:17.800Z,15.95
2023-03-26T08:49:07.693Z,15.82
2023-03-26T08:52:23.990Z,14.95
2023-03-26T08:55:42.078Z,14.85
2023-03-26T08:59:06.495Z,15.43
2023-03-26T09:02:03.071Z,15.98
2023-03-26T09:05:07.333Z,16.45
2023-03-26T09:08:20.157Z,16.88
2023-03-26T09:11:13.293Z,16.95
2023-03-26T09:14:22.425Z,14.60
2023-03-26T09:17:16.850Z,17.55
2023-03-26T09:20:38.826Z,15.02
2023-03-26T09:23:55.296Z,16.00
2023-03-26T09:26:31.582Z,14.85
2023-03-26T09:29:40.269Z,15.20
2023-03-26T09:32:47.213Z,15.02
2023-03-26T09:35:54.361Z,15.02
2023-03-26T09:41:44.291Z,13.95
2023-03-26T09:44:33.598Z,15.40
2023-03-26T09:47:27.331Z,13.98
2023-03-26T09:50:23.181Z,14.13
2023-03-26T09:53:22.633Z,15.63
2023-03-26T09:56:40.683Z,14.63
2023-03-26T09:59:38.082Z,14.23
2023-03-26T10:05:14.980Z,13.80
2023-03-26T10:08:16.250Z,14.73
2023-03-26T10:11:03.941Z,13.80
2023-03-26T10:14:00.676Z,12.85
2023-03-26T10:16:39.012Z,13.05
2023-03-26T10:19:44.509Z,13.80
2023-03-26T10:22:32.209Z,13.27
2023-03-26T10:26:07.040Z,13.52
2023-03-26T10:29:09.890Z,12.93
2023-03-26T10:32:01.622Z,13.68
2023-03-26T10:35:11.151Z,12.65
2023-03-26T10:37:59.865Z,13.63
2023-03-26T10:40:51.432Z,13.82
2023-03-26T10:44:10.624Z,13.10
2023-03-26T10:47:21.229Z,14.18
2023-03-26T10:52:55.117Z,14.73
2023-03-26T10:55:53.389Z,14.00
2023-03-26T10:58:48.756Z,14.88
2023-03-26T11:01:36.970Z,15.50
2023-03-26T11:04:56.639Z,14.77
2023-03-26T11:08:04.938Z,14.48
2023-03-26T11:11:06.926Z,15.10
2023-03-26T11:13:48.645Z,15.05
2023-03-26T11:17:14.811Z,14.38
2023-03-26T11:20:25.974Z,15.93
2023-03-26T11:23:16.814Z,14.98
2023-03-26T11:26:18.607Z,15.27
2023-03-26T11:31:58.698Z,15.45
2023-03-26T11:34:36.829Z,15.63
2023-03-26T11:34:43.125Z,15.45
2023-03-26T11:37:41.932Z,15.88
2023-03-26T11:40:25.177Z,15.00
2023-03-26T11:43:05.842Z,15.00
2023-03-26T11:45:43.758Z,15.43
2023-03-26T11:51:27.529Z,16.55
2023-03-26T11:53:58.690Z,17.27
2023-03-26T11:57:05.996Z,18.48
2023-03-26T12:00:21.962Z,18.00
2023-03-26T12:02:57.142Z,17.67
2023-03-26T12:05:34.392Z,17.10
2023-03-26T12:08:21.154Z,18.70
2023-03-26T12:11:06.390Z,17.70
2023-03-26T12:13:52.640Z,19.58
2023-03-26T12:16:23.650Z,19.23
2023-03-26T12:19:20.203Z,19.85
2023-03-26T12:21:55.329Z,19.50
2023-03-26T12:24:42.810Z,21.75
2023-03-26T12:27:29.344Z,20.35
2023-03-26T12:30:20.916Z,18.85
2023-03-26T12:32:54.461Z,20.23
2023-03-26T12:35:30.259Z,19.67
2023-03-26T12:38:41.686Z,19.27
2023-03-26T12:44:43.637Z,20.42
2023-03-26T12:44:51.503Z,19.00
2023-03-26T12:47:57.449Z,20.23
2023-03-26T12:50:36.484Z,19.52
2023-03-26T12:54:07.822Z,20.35
2023-03-26T12:57:12.022Z,19.88
2023-03-26T13:00:21.049Z,20.02
2023-03-26T13:03:33.207Z,19.52
2023-03-26T13:06:59.824Z,19.90
2023-03-26T13:09:59.711Z,19.30
2023-03-26T13:12:31.556Z,19.80
2023-03-26T13:15:24.958Z,19.77
2023-03-26T13:18:08.389Z,20.10
2023-03-26T13:21:21.763Z,20.25
2023-03-26T13:24:11.029Z,19.92
2023-03-26T13:27:33.049Z,20.13
2023-03-26T13:30:07.196Z,20.77
2023-03-26T13:33:03.980Z,20.75
2023-03-26T13:35:46.742Z,20.23
2023-03-26T13:38:40.887Z,21.05
2023-03-26T13:41:37.625Z,19.33
2023-03-26T13:44:20.189Z,19.80
2023-03-26T13:47:01.805Z,20.85
2023-03-26T13:49:49.889Z,22.42
2023-03-26T13:52:45.280Z,20.50
2023-03-26T13:55:45.638Z,20.35
2023-03-26T13:58:52.216Z,21.42
2023-03-26T14:01:57.039Z,20.70
2023-03-26T14:04:44.757Z,21.80
2023-03-26T14:08:03.275Z,22.70
2023-03-26T14:10:44.388Z,23.42
2023-03-26T14:13:28.419Z,22.83
2023-03-26T14:16:30.821Z,23.13
2023-03-26T14:20:07.588Z,23.67
2023-03-26T14:23:23.366Z,22.17
2023-03-26T14:26:26.219Z,23.20
2023-03-26T14:29:11.747Z,22.45
2023-03-26T14:32:02.778Z,23.08
2023-03-26T14:34:57.948Z,24.35
2023-03-26T14:38:10.244Z,22.13
2023-03-26T14:41:06.859Z,22.00
2023-03-26T14:44:00.649Z,22.20
2023-03-26T14:46:52.397Z,23.50
2023-03-26T14:49:55.566Z,23.33
